Arbroath, United Kingdom
Current Conditions -  °F | °C
As of 4:50 AM on Friday 31 Oct 2014 (Local Time) from EGQL Reporting Station
Overcast Overcast  
Wind Chill: 57°   Ceiling: 3000
Heat Index: 57°   Visibility: 6mi
Dew Point: 54°   Wind: 6mph
Humidity: 88%   Direction: 140°SE
Pressure: 29.77"   Gusts: NA
Location:  56.56°N, 2.58°W
Report Text: EGQL 310450Z 14005KT 9999 OVC030 14/12 Q1008 BLU
Loading
Personal Weather Stations






























Interactive Weather Map
Tropical Storm Tracking
New forecast layout! Learn more

10-Day Weather Forecast

Advertisements
Track Severe Weather on mobile